sensor_id;sensor_type;location;lat;lon;timestamp;temperature;humidity
19033;DHT22;9649;51.042;13.804;2023-12-07T00:01:13;2.00;99.90
19033;DHT22;9649;51.042;13.804;2023-12-07T00:06:19;1.90;99.90
19033;DHT22;9649;51.042;13.804;2023-12-07T00:11:30;2.00;99.90
19033;DHT22;9649;51.042;13.804;2023-12-07T00:16:33;2.10;99.90
19033;DHT22;9649;51.042;13.804;2023-12-07T00:21:36;2.10;99.90
19033;DHT22;9649;51.042;13.804;2023-12-07T00:26:40;2.20;99.90
19033;DHT22;9649;51.042;13.804;2023-12-07T00:31:43;2.20;99.90
19033;DHT22;9649;51.042;13.804;2023-12-07T00:36:46;2.20;99.90
19033;DHT22;9649;51.042;13.804;2023-12-07T00:41:50;2.20;99.90
19033;DHT22;9649;51.042;13.804;2023-12-07T00:46:53;2.20;99.90
19033;DHT22;9649;51.042;13.804;2023-12-07T00:51:56;2.20;99.90
19033;DHT22;9649;51.042;13.804;2023-12-07T00:57:00;2.40;99.90
19033;DHT22;9649;51.042;13.804;2023-12-07T01:02:03;2.40;99.90
19033;DHT22;9649;51.042;13.804;2023-12-07T01:07:06;2.50;99.90
19033;DHT22;9649;51.042;13.804;2023-12-07T01:12:10;2.30;99.90
19033;DHT22;9649;51.042;13.804;2023-12-07T01:17:13;2.40;99.90
19033;DHT22;9649;51.042;13.804;2023-12-07T01:22:17;2.40;99.90
19033;DHT22;9649;51.042;13.804;2023-12-07T01:27:21;2.30;99.90
19033;DHT22;9649;51.042;13.804;2023-12-07T01:32:24;2.30;99.90
19033;DHT22;9649;51.042;13.804;2023-12-07T01:37:27;2.40;99.90
19033;DHT22;9649;51.042;13.804;2023-12-07T01:42:32;2.40;99.90
19033;DHT22;9649;51.042;13.804;2023-12-07T01:47:35;2.40;99.90
19033;DHT22;9649;51.042;13.804;2023-12-07T01:52:44;2.50;99.90
19033;DHT22;9649;51.042;13.804;2023-12-07T01:57:49;2.50;99.90
19033;DHT22;9649;51.042;13.804;2023-12-07T02:02:52;2.40;99.90
19033;DHT22;9649;51.042;13.804;2023-12-07T02:07:54;2.50;99.90
19033;DHT22;9649;51.042;13.804;2023-12-07T02:12:59;2.50;99.90
19033;DHT22;9649;51.042;13.804;2023-12-07T02:18:06;2.40;99.90
19033;DHT22;9649;51.042;13.804;2023-12-07T02:23:14;2.40;99.90
19033;DHT22;9649;51.042;13.804;2023-12-07T02:28:27;2.40;99.90
19033;DHT22;9649;51.042;13.804;2023-12-07T02:33:30;2.50;99.90
19033;DHT22;9649;51.042;13.804;2023-12-07T02:38:34;2.40;99.90
19033;DHT22;9649;51.042;13.804;2023-12-07T02:43:39;2.40;99.90
19033;DHT22;9649;51.042;13.804;2023-12-07T02:48:42;2.50;99.90
19033;DHT22;9649;51.042;13.804;2023-12-07T02:53:45;2.40;99.90
19033;DHT22;9649;51.042;13.804;2023-12-07T02:58:49;2.30;99.90
19033;DHT22;9649;51.042;13.804;2023-12-07T03:03:51;2.30;99.90
19033;DHT22;9649;51.042;13.804;2023-12-07T03:08:54;2.50;99.90
19033;DHT22;9649;51.042;13.804;2023-12-07T03:13:58;2.60;99.90
19033;DHT22;9649;51.042;13.804;2023-12-07T03:19:01;2.50;99.90
19033;DHT22;9649;51.042;13.804;2023-12-07T03:24:06;2.50;99.90
19033;DHT22;9649;51.042;13.804;2023-12-07T03:29:10;2.50;99.90
19033;DHT22;9649;51.042;13.804;2023-12-07T03:34:13;2.50;99.90
19033;DHT22;9649;51.042;13.804;2023-12-07T03:39:17;2.60;99.90
19033;DHT22;9649;51.042;13.804;2023-12-07T03:44:24;2.60;99.90
19033;DHT22;9649;51.042;13.804;2023-12-07T03:49:28;2.50;99.90
19033;DHT22;9649;51.042;13.804;2023-12-07T03:54:30;2.50;99.90
19033;DHT22;9649;51.042;13.804;2023-12-07T03:59:36;2.50;99.90
19033;DHT22;9649;51.042;13.804;2023-12-07T04:04:39;2.50;99.90
19033;DHT22;9649;51.042;13.804;2023-12-07T04:09:42;2.50;99.90
19033;DHT22;9649;51.042;13.804;2023-12-07T04:14:48;2.40;99.90
19033;DHT22;9649;51.042;13.804;2023-12-07T04:19:50;2.50;99.90
19033;DHT22;9649;51.042;13.804;2023-12-07T04:24:53;2.40;99.90
19033;DHT22;9649;51.042;13.804;2023-12-07T04:29:57;2.40;99.90
19033;DHT22;9649;51.042;13.804;2023-12-07T04:35:00;2.40;99.90
19033;DHT22;9649;51.042;13.804;2023-12-07T04:40:03;2.50;99.90
19033;DHT22;9649;51.042;13.804;2023-12-07T04:45:09;2.60;99.90
19033;DHT22;9649;51.042;13.804;2023-12-07T04:50:12;2.70;99.90
19033;DHT22;9649;51.042;13.804;2023-12-07T04:55:15;2.60;99.90
19033;DHT22;9649;51.042;13.804;2023-12-07T05:00:20;2.60;99.90
19033;DHT22;9649;51.042;13.804;2023-12-07T05:05:23;2.60;99.90
19033;DHT22;9649;51.042;13.804;2023-12-07T05:10:26;2.50;99.90
19033;DHT22;9649;51.042;13.804;2023-12-07T05:15:30;2.60;99.90
19033;DHT22;9649;51.042;13.804;2023-12-07T05:20:32;2.50;99.90
19033;DHT22;9649;51.042;13.804;2023-12-07T05:25:35;2.60;99.90
19033;DHT22;9649;51.042;13.804;2023-12-07T05:30:39;2.60;99.90
19033;DHT22;9649;51.042;13.804;2023-12-07T05:35:45;2.40;99.90
19033;DHT22;9649;51.042;13.804;2023-12-07T05:40:48;2.60;99.90
19033;DHT22;9649;51.042;13.804;2023-12-07T05:45:52;2.50;99.90
19033;DHT22;9649;51.042;13.804;2023-12-07T05:50:54;2.50;99.90
19033;DHT22;9649;51.042;13.804;2023-12-07T05:55:58;2.50;99.90
19033;DHT22;9649;51.042;13.804;2023-12-07T06:01:06;2.50;99.90
19033;DHT22;9649;51.042;13.804;2023-12-07T06:06:10;2.60;99.90
19033;DHT22;9649;51.042;13.804;2023-12-07T06:11:13;2.60;99.90
19033;DHT22;9649;51.042;13.804;2023-12-07T06:16:17;2.60;99.90
19033;DHT22;9649;51.042;13.804;2023-12-07T06:21:20;2.60;99.90
19033;DHT22;9649;51.042;13.804;2023-12-07T06:26:24;2.60;99.90
19033;DHT22;9649;51.042;13.804;2023-12-07T06:31:32;2.70;99.90
19033;DHT22;9649;51.042;13.804;2023-12-07T06:36:50;2.70;99.90
19033;DHT22;9649;51.042;13.804;2023-12-07T06:41:53;2.70;99.90
19033;DHT22;9649;51.042;13.804;2023-12-07T06:46:58;2.80;99.90
19033;DHT22;9649;51.042;13.804;2023-12-07T06:52:05;2.70;99.90
19033;DHT22;9649;51.042;13.804;2023-12-07T06:57:08;2.70;99.90
19033;DHT22;9649;51.042;13.804;2023-12-07T07:02:16;2.70;99.90
19033;DHT22;9649;51.042;13.804;2023-12-07T07:07:22;2.80;99.90
19033;DHT22;9649;51.042;13.804;2023-12-07T07:12:26;2.70;99.90
19033;DHT22;9649;51.042;13.804;2023-12-07T07:17:35;2.90;99.90
19033;DHT22;9649;51.042;13.804;2023-12-07T07:22:39;2.90;99.90
19033;DHT22;9649;51.042;13.804;2023-12-07T07:27:44;2.80;99.90
19033;DHT22;9649;51.042;13.804;2023-12-07T07:32:54;2.80;99.90
19033;DHT22;9649;51.042;13.804;2023-12-07T07:38:02;2.80;99.90
19033;DHT22;9649;51.042;13.804;2023-12-07T07:43:18;2.80;99.90
19033;DHT22;9649;51.042;13.804;2023-12-07T07:48:26;2.90;99.90
19033;DHT22;9649;51.042;13.804;2023-12-07T07:53:32;3.00;99.90
19033;DHT22;9649;51.042;13.804;2023-12-07T07:58:37;3.10;99.90
19033;DHT22;9649;51.042;13.804;2023-12-07T08:03:47;3.10;99.90
19033;DHT22;9649;51.042;13.804;2023-12-07T08:08:54;3.20;99.90
19033;DHT22;9649;51.042;13.804;2023-12-07T08:14:03;3.20;99.90
19033;DHT22;9649;51.042;13.804;2023-12-07T08:31:10;3.30;99.90
19033;DHT22;9649;51.042;13.804;2023-12-07T08:48:55;3.20;99.90
19033;DHT22;9649;51.042;13.804;2023-12-07T08:55:13;3.30;99.90
19033;DHT22;9649;51.042;13.804;2023-12-07T09:50:18;3.80;99.90
19033;DHT22;9649;51.042;13.804;2023-12-07T09:55:49;3.80;99.90
19033;DHT22;9649;51.042;13.804;2023-12-07T10:00:53;3.80;99.90
19033;DHT22;9649;51.042;13.804;2023-12-07T10:05:58;3.80;99.90
19033;DHT22;9649;51.042;13.804;2023-12-07T10:11:03;3.90;99.90
19033;DHT22;9649;51.042;13.804;2023-12-07T10:16:13;3.90;99.90
19033;DHT22;9649;51.042;13.804;2023-12-07T10:21:16;3.90;99.90
19033;DHT22;9649;51.042;13.804;2023-12-07T10:26:33;3.90;99.90
19033;DHT22;9649;51.042;13.804;2023-12-07T10:31:40;3.90;99.90
19033;DHT22;9649;51.042;13.804;2023-12-07T10:36:45;3.80;99.90
19033;DHT22;9649;51.042;13.804;2023-12-07T10:41:49;3.90;99.90
19033;DHT22;9649;51.042;13.804;2023-12-07T10:46:57;3.90;99.90
19033;DHT22;9649;51.042;13.804;2023-12-07T10:52:05;3.90;99.90
19033;DHT22;9649;51.042;13.804;2023-12-07T10:57:09;3.80;99.90
19033;DHT22;9649;51.042;13.804;2023-12-07T11:02:17;3.80;99.90
19033;DHT22;9649;51.042;13.804;2023-12-07T11:07:25;3.80;99.90
19033;DHT22;9649;51.042;13.804;2023-12-07T11:12:35;3.60;99.90
19033;DHT22;9649;51.042;13.804;2023-12-07T11:17:52;3.60;99.90
19033;DHT22;9649;51.042;13.804;2023-12-07T11:22:56;3.60;99.90
19033;DHT22;9649;51.042;13.804;2023-12-07T11:28:02;3.60;99.90
19033;DHT22;9649;51.042;13.804;2023-12-07T11:33:07;3.60;99.90
19033;DHT22;9649;51.042;13.804;2023-12-07T11:38:11;3.60;99.90
19033;DHT22;9649;51.042;13.804;2023-12-07T11:43:17;3.70;99.90
19033;DHT22;9649;51.042;13.804;2023-12-07T11:48:22;3.70;99.90
19033;DHT22;9649;51.042;13.804;2023-12-07T11:53:25;3.70;99.90
19033;DHT22;9649;51.042;13.804;2023-12-07T11:58:30;3.70;99.90
19033;DHT22;9649;51.042;13.804;2023-12-07T12:03:38;3.70;99.90
19033;DHT22;9649;51.042;13.804;2023-12-07T12:08:41;3.80;99.90
19033;DHT22;9649;51.042;13.804;2023-12-07T12:13:45;3.80;99.90
19033;DHT22;9649;51.042;13.804;2023-12-07T12:18:50;3.80;99.90
19033;DHT22;9649;51.042;13.804;2023-12-07T12:23:52;3.80;99.90
19033;DHT22;9649;51.042;13.804;2023-12-07T12:28:55;3.90;1.00
19033;DHT22;9649;51.042;13.804;2023-12-07T12:34:00;3.90;1.00
19033;DHT22;9649;51.042;13.804;2023-12-07T12:39:08;3.80;1.00
19033;DHT22;9649;51.042;13.804;2023-12-07T12:44:27;3.80;1.00
19033;DHT22;9649;51.042;13.804;2023-12-07T12:49:40;3.80;1.00
19033;DHT22;9649;51.042;13.804;2023-12-07T12:54:46;3.80;1.00
19033;DHT22;9649;51.042;13.804;2023-12-07T12:59:51;3.70;1.00
19033;DHT22;9649;51.042;13.804;2023-12-07T13:04:55;3.70;1.00
19033;DHT22;9649;51.042;13.804;2023-12-07T13:10:01;3.80;1.00
19033;DHT22;9649;51.042;13.804;2023-12-07T13:15:04;3.70;1.00
19033;DHT22;9649;51.042;13.804;2023-12-07T13:20:10;3.70;1.00
19033;DHT22;9649;51.042;13.804;2023-12-07T13:25:13;3.70;1.00
19033;DHT22;9649;51.042;13.804;2023-12-07T13:30:16;3.70;1.00
19033;DHT22;9649;51.042;13.804;2023-12-07T13:35:20;3.80;1.00
19033;DHT22;9649;51.042;13.804;2023-12-07T13:40:24;3.60;2.90
19033;DHT22;9649;51.042;13.804;2023-12-07T13:45:28;3.70;20.00
19033;DHT22;9649;51.042;13.804;2023-12-07T13:50:34;3.70;5.20
19033;DHT22;9649;51.042;13.804;2023-12-07T13:55:37;3.70;34.60
19033;DHT22;9649;51.042;13.804;2023-12-07T14:00:41;3.70;1.00
19033;DHT22;9649;51.042;13.804;2023-12-07T14:05:48;3.70;1.00
19033;DHT22;9649;51.042;13.804;2023-12-07T14:10:51;3.70;1.00
19033;DHT22;9649;51.042;13.804;2023-12-07T14:15:54;3.70;1.00
19033;DHT22;9649;51.042;13.804;2023-12-07T14:21:08;3.60;1.00
19033;DHT22;9649;51.042;13.804;2023-12-07T14:26:14;3.50;1.00
19033;DHT22;9649;51.042;13.804;2023-12-07T14:31:16;3.40;1.00
19033;DHT22;9649;51.042;13.804;2023-12-07T14:36:21;3.40;1.00
19033;DHT22;9649;51.042;13.804;2023-12-07T14:41:24;3.40;39.10
19033;DHT22;9649;51.042;13.804;2023-12-07T14:46:27;3.40;1.00
19033;DHT22;9649;51.042;13.804;2023-12-07T14:51:31;3.40;37.20
19033;DHT22;9649;51.042;13.804;2023-12-07T14:56:34;3.40;90.30
19033;DHT22;9649;51.042;13.804;2023-12-07T15:01:37;3.50;93.60
19033;DHT22;9649;51.042;13.804;2023-12-07T15:06:41;3.40;99.90
19033;DHT22;9649;51.042;13.804;2023-12-07T15:11:44;3.30;99.90
19033;DHT22;9649;51.042;13.804;2023-12-07T15:16:47;3.30;99.90
19033;DHT22;9649;51.042;13.804;2023-12-07T15:21:51;3.30;17.40
19033;DHT22;9649;51.042;13.804;2023-12-07T15:26:54;3.30;1.00
19033;DHT22;9649;51.042;13.804;2023-12-07T15:31:57;3.40;99.90
19033;DHT22;9649;51.042;13.804;2023-12-07T15:37:01;3.40;99.90
19033;DHT22;9649;51.042;13.804;2023-12-07T15:42:04;3.50;99.10
19033;DHT22;9649;51.042;13.804;2023-12-07T15:47:07;3.40;99.90
19033;DHT22;9649;51.042;13.804;2023-12-07T15:52:11;3.30;99.90
19033;DHT22;9649;51.042;13.804;2023-12-07T15:57:31;3.30;99.90
19033;DHT22;9649;51.042;13.804;2023-12-07T16:21:28;3.20;99.90
19033;DHT22;9649;51.042;13.804;2023-12-07T16:33:45;3.10;99.90
19033;DHT22;9649;51.042;13.804;2023-12-07T16:39:39;3.00;99.90
19033;DHT22;9649;51.042;13.804;2023-12-07T16:51:43;3.00;99.90
19033;DHT22;9649;51.042;13.804;2023-12-07T17:03:47;3.10;99.90
19033;DHT22;9649;51.042;13.804;2023-12-07T17:09:11;3.00;99.90
19033;DHT22;9649;51.042;13.804;2023-12-07T17:14:28;3.10;99.90
19033;DHT22;9649;51.042;13.804;2023-12-07T17:19:36;3.10;99.90
19033;DHT22;9649;51.042;13.804;2023-12-07T17:24:53;3.20;99.90
19033;DHT22;9649;51.042;13.804;2023-12-07T17:30:01;3.10;99.90
19033;DHT22;9649;51.042;13.804;2023-12-07T17:35:12;3.00;99.90
19033;DHT22;9649;51.042;13.804;2023-12-07T17:40:50;3.00;99.90
19033;DHT22;9649;51.042;13.804;2023-12-07T17:46:07;3.00;99.90
19033;DHT22;9649;51.042;13.804;2023-12-07T17:51:17;3.10;99.90
19033;DHT22;9649;51.042;13.804;2023-12-07T17:56:58;3.10;99.90
19033;DHT22;9649;51.042;13.804;2023-12-07T18:02:44;3.00;99.90
19033;DHT22;9649;51.042;13.804;2023-12-07T18:08:17;3.10;99.90
19033;DHT22;9649;51.042;13.804;2023-12-07T18:13:43;3.10;99.90
19033;DHT22;9649;51.042;13.804;2023-12-07T18:18:57;3.00;99.90
19033;DHT22;9649;51.042;13.804;2023-12-07T18:24:16;3.00;99.90
19033;DHT22;9649;51.042;13.804;2023-12-07T18:29:59;3.00;99.90
19033;DHT22;9649;51.042;13.804;2023-12-07T18:35:24;3.00;99.90
19033;DHT22;9649;51.042;13.804;2023-12-07T18:40:41;2.90;99.90
19033;DHT22;9649;51.042;13.804;2023-12-07T18:46:38;2.90;99.90
19033;DHT22;9649;51.042;13.804;2023-12-07T18:52:41;3.00;99.90
19033;DHT22;9649;51.042;13.804;2023-12-07T18:58:04;3.00;99.90
19033;DHT22;9649;51.042;13.804;2023-12-07T19:03:41;3.00;99.90
19033;DHT22;9649;51.042;13.804;2023-12-07T19:09:17;3.00;99.90
19033;DHT22;9649;51.042;13.804;2023-12-07T19:14:55;2.90;99.90
19033;DHT22;9649;51.042;13.804;2023-12-07T19:26:20;2.80;99.90
19033;DHT22;9649;51.042;13.804;2023-12-07T19:32:11;2.80;99.90
19033;DHT22;9649;51.042;13.804;2023-12-07T19:38:04;2.90;99.90
19033;DHT22;9649;51.042;13.804;2023-12-07T19:50:06;3.00;99.90
19033;DHT22;9649;51.042;13.804;2023-12-07T19:55:31;2.90;99.00
19033;DHT22;9649;51.042;13.804;2023-12-07T20:00:40;2.90;99.90
19033;DHT22;9649;51.042;13.804;2023-12-07T20:06:04;2.80;99.90
19033;DHT22;9649;51.042;13.804;2023-12-07T20:49:25;2.80;5.70
19033;DHT22;9649;51.042;13.804;2023-12-07T20:55:34;2.70;1.00
19033;DHT22;9649;51.042;13.804;2023-12-07T21:14:27;2.80;1.00
19033;DHT22;9649;51.042;13.804;2023-12-07T21:31:46;2.80;1.00
19033;DHT22;9649;51.042;13.804;2023-12-07T21:37:21;2.70;1.00
19033;DHT22;9649;51.042;13.804;2023-12-07T21:42:38;2.60;1.00
19033;DHT22;9649;51.042;13.804;2023-12-07T21:48:00;2.70;1.00
19033;DHT22;9649;51.042;13.804;2023-12-07T21:53:28;2.70;1.00
19033;DHT22;9649;51.042;13.804;2023-12-07T21:58:45;2.60;1.00
19033;DHT22;9649;51.042;13.804;2023-12-07T22:03:49;2.50;1.00
19033;DHT22;9649;51.042;13.804;2023-12-07T22:08:52;2.50;1.00
19033;DHT22;9649;51.042;13.804;2023-12-07T22:13:55;2.30;1.00
19033;DHT22;9649;51.042;13.804;2023-12-07T22:18:59;2.10;99.90
19033;DHT22;9649;51.042;13.804;2023-12-07T22:24:02;2.00;99.90
19033;DHT22;9649;51.042;13.804;2023-12-07T22:29:05;1.90;99.90
19033;DHT22;9649;51.042;13.804;2023-12-07T22:34:09;1.70;99.90
19033;DHT22;9649;51.042;13.804;2023-12-07T22:39:12;1.70;99.90
19033;DHT22;9649;51.042;13.804;2023-12-07T22:44:16;1.60;99.90
19033;DHT22;9649;51.042;13.804;2023-12-07T22:49:20;1.60;99.90
19033;DHT22;9649;51.042;13.804;2023-12-07T22:54:22;1.50;99.90
19033;DHT22;9649;51.042;13.804;2023-12-07T22:59:25;1.30;99.90
19033;DHT22;9649;51.042;13.804;2023-12-07T23:04:29;1.20;99.90
19033;DHT22;9649;51.042;13.804;2023-12-07T23:09:32;1.00;99.90
19033;DHT22;9649;51.042;13.804;2023-12-07T23:14:38;0.90;99.90
19033;DHT22;9649;51.042;13.804;2023-12-07T23:19:43;0.70;99.90
19033;DHT22;9649;51.042;13.804;2023-12-07T23:24:45;0.70;99.90
19033;DHT22;9649;51.042;13.804;2023-12-07T23:29:48;0.80;99.90
19033;DHT22;9649;51.042;13.804;2023-12-07T23:34:57;0.60;99.90
19033;DHT22;9649;51.042;13.804;2023-12-07T23:40:00;0.70;99.90
19033;DHT22;9649;51.042;13.804;2023-12-07T23:45:03;0.70;99.90
19033;DHT22;9649;51.042;13.804;2023-12-07T23:50:08;0.60;99.90
19033;DHT22;9649;51.042;13.804;2023-12-07T23:55:11;0.60;99.90
